Flight Number: EUR2439 Duration: 6:00
Departure: Dubai Int'l (OMDB) at 08:00 Distance: 2463 Nm
Arrival: Munich Int'l (EDDM) at 14:00 Equipment: B777

Weather Information
Dubai International Airport, United Arab Emirates (OMDB) 25-15N 055-20E 5M May 23, 2018 - 08:00 PM EDT / 2018.05.24 0000 UTC
Wind: from the ESE (110 degrees) at 7 MPH (6 KT) (direction variable):0
Visibility: greater than 7 mile(s):0 Temperature: 87 F (31 C) Dew Point: 62 F (17 C) Relative Humidity: 43% Pressure (altimeter): 29.68 in. Hg (1005 hPa)
ob: OMDB 240000Z 11006KT 080V140 CAVOK 31/17 Q1005 NOSIG cycle: 0
Sunrise: 01:32 Sunset: 14:58 (UTC)

Munchen, Germany (EDDM) 48-21N 011-47E May 23, 2018 - 08:20 PM EDT / 2018.05.24 0020 UTC
Wind: from the WNW (300 degrees) at 2 MPH (2 KT):0
Visibility: greater than 7 mile(s):0
Sky conditions: mostly cloudy Weather: showers in the vicinity; Cumulonimbus clouds observed Temperature: 59 F (15 C) Dew Point: 55 F (13 C) Relative Humidity: 87% Pressure (altimeter): 30.03 in. Hg (1017 hPa)
ob: EDDM 240020Z 30002KT 9999 VCSH FEW016 SCT030CB BKN100 15/13 Q1017 NOSIG cycle: 0
Sunrise: 03:26 Sunset: 18:53 (UTC)

TAF:2018/05/23 18:27 TAF EDDM 231700Z 2318/2424 VRB03KT 9999 SCT035 PROB30 TEMPO 2318/2323 16012KT 3000 TSRA BKN030CB TEMPO 2323/2409 SHRA BKN010 BKN030CB PROB30 TEMPO 2405/2407 15012KT 3000 TSRA BKN006 BKN020CB PROB40 TEMPO 2409/2416 26015G25KT 3000 TSRAGR BKN012 BKN025CB BECMG 2420/2423 2000 BCFG

Previous Pireps for this route
Date Aircraft Flight time Fuel used Landing rate On time
2012-08-14A3405.35703870Yes
2012-11-02A34006.44112308-462No
2013-01-23A3405.3067954.70Yes
2013-01-29A3405.3063527.80Yes
2015-07-02B7776.231057580Charter
2016-02-29B77706.261211060Yes
2016-03-13B7776,30111918-312No
2016-10-07B77706.08100062-207Yes
2016-10-16B77706.07120485-347No
2016-11-01B77706.09130278-469Yes
(pireps marked green are flown by you)

Route map